sensor_id;sensor_type;location;lat;lon;timestamp;P1;durP1;ratioP1;P2;durP2;ratioP2
25169;SDS011;13129;48.012;10.352;2022-11-20T04:30:43;6.18;;;5.57;;
25169;SDS011;13129;48.012;10.352;2022-11-20T04:33:09;5.32;;;4.82;;
25169;SDS011;13129;48.012;10.352;2022-11-20T04:35:35;8.02;;;5.30;;
25169;SDS011;13129;48.012;10.352;2022-11-20T04:38:01;6.45;;;5.85;;
25169;SDS011;13129;48.012;10.352;2022-11-20T04:40:28;7.18;;;5.60;;
25169;SDS011;13129;48.012;10.352;2022-11-20T04:42:54;5.55;;;5.05;;
25169;SDS011;13129;48.012;10.352;2022-11-20T04:45:20;5.82;;;5.18;;
25169;SDS011;13129;48.012;10.352;2022-11-20T04:47:46;6.78;;;5.57;;
25169;SDS011;13129;48.012;10.352;2022-11-20T04:50:11;6.30;;;5.70;;
25169;SDS011;13129;48.012;10.352;2022-11-20T04:52:37;7.68;;;6.28;;
25169;SDS011;13129;48.012;10.352;2022-11-20T04:55:03;6.70;;;6.07;;
25169;SDS011;13129;48.012;10.352;2022-11-20T04:57:28;6.97;;;6.28;;
25169;SDS011;13129;48.012;10.352;2022-11-20T04:59:54;6.93;;;6.22;;
25169;SDS011;13129;48.012;10.352;2022-11-20T05:02:20;7.28;;;6.30;;
25169;SDS011;13129;48.012;10.352;2022-11-20T05:04:46;8.90;;;7.07;;
25169;SDS011;13129;48.012;10.352;2022-11-20T05:07:11;8.18;;;7.32;;
25169;SDS011;13129;48.012;10.352;2022-11-20T05:09:37;7.68;;;6.45;;
25169;SDS011;13129;48.012;10.352;2022-11-20T05:12:03;7.97;;;7.18;;
25169;SDS011;13129;48.012;10.352;2022-11-20T05:14:28;9.50;;;7.30;;
25169;SDS011;13129;48.012;10.352;2022-11-20T05:16:54;9.48;;;7.85;;
25169;SDS011;13129;48.012;10.352;2022-11-20T05:19:20;7.90;;;7.13;;
25169;SDS011;13129;48.012;10.352;2022-11-20T05:21:45;8.23;;;7.05;;
25169;SDS011;13129;48.012;10.352;2022-11-20T05:24:11;8.07;;;6.57;;
25169;SDS011;13129;48.012;10.352;2022-11-20T05:26:39;8.00;;;6.57;;
25169;SDS011;13129;48.012;10.352;2022-11-20T05:29:05;7.35;;;6.65;;
25169;SDS011;13129;48.012;10.352;2022-11-20T05:31:31;7.72;;;6.93;;
25169;SDS011;13129;48.012;10.352;2022-11-20T05:33:57;7.25;;;6.22;;
25169;SDS011;13129;48.012;10.352;2022-11-20T05:36:22;6.93;;;6.22;;
25169;SDS011;13129;48.012;10.352;2022-11-20T05:38:49;7.22;;;6.53;;
25169;SDS011;13129;48.012;10.352;2022-11-20T05:41:15;9.55;;;8.52;;
25169;SDS011;13129;48.012;10.352;2022-11-20T05:43:42;36.10;;;23.35;;
25169;SDS011;13129;48.012;10.352;2022-11-20T05:46:10;13.27;;;10.48;;
25169;SDS011;13129;48.012;10.352;2022-11-20T05:48:37;13.65;;;10.90;;
25169;SDS011;13129;48.012;10.352;2022-11-20T05:51:04;7.03;;;5.88;;
25169;SDS011;13129;48.012;10.352;2022-11-20T05:53:33;14.27;;;10.45;;
25169;SDS011;13129;48.012;10.352;2022-11-20T05:58:31;8.00;;;6.32;;
25169;SDS011;13129;48.012;10.352;2022-11-20T06:01:06;7.07;;;5.72;;
25169;SDS011;13129;48.012;10.352;2022-11-20T06:03:33;6.68;;;5.97;;
25169;SDS011;13129;48.012;10.352;2022-11-20T06:06:00;7.35;;;6.00;;
25169;SDS011;13129;48.012;10.352;2022-11-20T06:08:27;6.60;;;5.97;;
25169;SDS011;13129;48.012;10.352;2022-11-20T06:10:53;8.02;;;6.38;;
25169;SDS011;13129;48.012;10.352;2022-11-20T06:13:19;6.80;;;6.20;;
25169;SDS011;13129;48.012;10.352;2022-11-20T06:15:48;7.40;;;6.80;;
25169;SDS011;13129;48.012;10.352;2022-11-20T06:18:15;7.05;;;5.90;;
25169;SDS011;13129;48.012;10.352;2022-11-20T06:20:40;7.30;;;6.57;;
25169;SDS011;13129;48.012;10.352;2022-11-20T06:23:06;6.35;;;5.75;;
25169;SDS011;13129;48.012;10.352;2022-11-20T06:25:32;6.43;;;5.82;;
25169;SDS011;13129;48.012;10.352;2022-11-20T06:27:57;7.95;;;6.50;;
25169;SDS011;13129;48.012;10.352;2022-11-20T06:30:23;7.25;;;6.35;;
25169;SDS011;13129;48.012;10.352;2022-11-20T06:32:49;7.03;;;6.43;;
25169;SDS011;13129;48.012;10.352;2022-11-20T06:35:14;8.10;;;6.78;;
25169;SDS011;13129;48.012;10.352;2022-11-20T06:37:40;8.15;;;6.53;;
25169;SDS011;13129;48.012;10.352;2022-11-20T06:40:06;8.38;;;6.75;;
25169;SDS011;13129;48.012;10.352;2022-11-20T06:42:32;7.10;;;6.40;;
25169;SDS011;13129;48.012;10.352;2022-11-20T06:44:57;9.73;;;6.45;;
25169;SDS011;13129;48.012;10.352;2022-11-20T06:47:23;7.82;;;6.75;;
25169;SDS011;13129;48.012;10.352;2022-11-20T06:49:49;8.38;;;6.57;;
25169;SDS011;13129;48.012;10.352;2022-11-20T06:52:14;7.43;;;6.72;;
25169;SDS011;13129;48.012;10.352;2022-11-20T06:54:40;7.00;;;6.22;;
25169;SDS011;13129;48.012;10.352;2022-11-20T06:57:06;7.82;;;6.63;;
25169;SDS011;13129;48.012;10.352;2022-11-20T06:59:31;6.57;;;5.95;;
25169;SDS011;13129;48.012;10.352;2022-11-20T07:01:57;7.97;;;6.47;;
25169;SDS011;13129;48.012;10.352;2022-11-20T07:04:22;7.60;;;5.78;;
25169;SDS011;13129;48.012;10.352;2022-11-20T07:06:48;7.55;;;6.85;;
25169;SDS011;13129;48.012;10.352;2022-11-20T07:09:14;6.82;;;6.13;;
25169;SDS011;13129;48.012;10.352;2022-11-20T07:11:40;11.50;;;8.63;;
25169;SDS011;13129;48.012;10.352;2022-11-20T07:14:05;8.85;;;6.85;;
25169;SDS011;13129;48.012;10.352;2022-11-20T07:16:31;6.43;;;5.90;;
25169;SDS011;13129;48.012;10.352;2022-11-20T07:18:57;6.05;;;5.47;;
25169;SDS011;13129;48.012;10.352;2022-11-20T07:21:22;6.15;;;5.55;;
25169;SDS011;13129;48.012;10.352;2022-11-20T07:23:48;8.05;;;6.38;;
25169;SDS011;13129;48.012;10.352;2022-11-20T07:26:14;6.43;;;5.82;;
25169;SDS011;13129;48.012;10.352;2022-11-20T07:28:40;9.07;;;7.15;;
25169;SDS011;13129;48.012;10.352;2022-11-20T07:31:08;6.85;;;6.05;;
25169;SDS011;13129;48.012;10.352;2022-11-20T07:33:34;5.88;;;5.22;;
25169;SDS011;13129;48.012;10.352;2022-11-20T07:36:00;6.53;;;5.78;;
25169;SDS011;13129;48.012;10.352;2022-11-20T07:38:26;10.82;;;7.05;;
25169;SDS011;13129;48.012;10.352;2022-11-20T07:40:55;10.95;;;8.85;;
25169;SDS011;13129;48.012;10.352;2022-11-20T07:43:22;11.60;;;8.38;;
25169;SDS011;13129;48.012;10.352;2022-11-20T07:45:48;7.93;;;5.75;;
25169;SDS011;13129;48.012;10.352;2022-11-20T07:48:14;12.80;;;8.20;;
25169;SDS011;13129;48.012;10.352;2022-11-20T07:50:40;13.52;;;7.50;;
25169;SDS011;13129;48.012;10.352;2022-11-20T07:53:06;6.85;;;5.95;;
25169;SDS011;13129;48.012;10.352;2022-11-20T07:55:32;7.68;;;6.35;;
25169;SDS011;13129;48.012;10.352;2022-11-20T07:57:58;6.25;;;5.38;;
25169;SDS011;13129;48.012;10.352;2022-11-20T08:00:25;5.72;;;5.22;;
25169;SDS011;13129;48.012;10.352;2022-11-20T08:02:51;6.05;;;5.30;;
25169;SDS011;13129;48.012;10.352;2022-11-20T08:05:17;5.97;;;4.75;;
25169;SDS011;13129;48.012;10.352;2022-11-20T08:07:43;6.35;;;4.10;;
25169;SDS011;13129;48.012;10.352;2022-11-20T08:10:10;5.10;;;4.60;;
25169;SDS011;13129;48.012;10.352;2022-11-20T08:13:11;5.90;;;4.70;;
25169;SDS011;13129;48.012;10.352;2022-11-20T08:15:49;4.75;;;4.35;;
25169;SDS011;13129;48.012;10.352;2022-11-20T08:18:16;5.47;;;4.47;;
25169;SDS011;13129;48.012;10.352;2022-11-20T08:20:42;5.75;;;4.88;;
25169;SDS011;13129;48.012;10.352;2022-11-20T08:23:08;5.25;;;4.75;;
25169;SDS011;13129;48.012;10.352;2022-11-20T08:25:35;4.85;;;4.35;;
25169;SDS011;13129;48.012;10.352;2022-11-20T08:28:03;6.35;;;5.78;;
25169;SDS011;13129;48.012;10.352;2022-11-20T08:30:30;6.40;;;4.93;;
25169;SDS011;13129;48.012;10.352;2022-11-20T08:33:00;5.32;;;4.38;;
25169;SDS011;13129;48.012;10.352;2022-11-20T08:35:27;4.22;;;3.92;;
25169;SDS011;13129;48.012;10.352;2022-11-20T08:37:53;6.10;;;5.50;;
25169;SDS011;13129;48.012;10.352;2022-11-20T08:40:18;5.45;;;4.53;;
25169;SDS011;13129;48.012;10.352;2022-11-20T08:42:48;5.45;;;4.97;;
25169;SDS011;13129;48.012;10.352;2022-11-20T08:45:15;4.78;;;4.38;;
25169;SDS011;13129;48.012;10.352;2022-11-20T08:47:41;4.18;;;3.72;;
25169;SDS011;13129;48.012;10.352;2022-11-20T08:50:08;4.40;;;4.00;;
25169;SDS011;13129;48.012;10.352;2022-11-20T08:55:04;4.35;;;3.95;;
25169;SDS011;13129;48.012;10.352;2022-11-20T08:57:31;3.90;;;3.60;;
25169;SDS011;13129;48.012;10.352;2022-11-20T08:59:57;3.33;;;3.10;;
25169;SDS011;13129;48.012;10.352;2022-11-20T09:02:24;4.80;;;3.05;;
25169;SDS011;13129;48.012;10.352;2022-11-20T09:04:49;2.78;;;2.58;;
25169;SDS011;13129;48.012;10.352;2022-11-20T09:07:15;2.85;;;2.65;;
25169;SDS011;13129;48.012;10.352;2022-11-20T09:09:41;3.33;;;3.03;;
25169;SDS011;13129;48.012;10.352;2022-11-20T09:12:14;5.28;;;3.63;;
25169;SDS011;13129;48.012;10.352;2022-11-20T09:14:40;3.55;;;3.25;;
25169;SDS011;13129;48.012;10.352;2022-11-20T09:17:05;3.65;;;3.35;;
25169;SDS011;13129;48.012;10.352;2022-11-20T09:19:32;3.90;;;3.60;;
25169;SDS011;13129;48.012;10.352;2022-11-20T09:21:58;4.38;;;3.20;;
25169;SDS011;13129;48.012;10.352;2022-11-20T09:24:25;5.57;;;3.92;;
25169;SDS011;13129;48.012;10.352;2022-11-20T09:26:51;4.05;;;3.75;;
25169;SDS011;13129;48.012;10.352;2022-11-20T09:29:17;5.05;;;4.55;;
25169;SDS011;13129;48.012;10.352;2022-11-20T09:31:43;3.55;;;3.25;;
25169;SDS011;13129;48.012;10.352;2022-11-20T09:34:09;3.05;;;2.63;;
25169;SDS011;13129;48.012;10.352;2022-11-20T09:36:34;3.35;;;3.05;;
25169;SDS011;13129;48.012;10.352;2022-11-20T09:39:00;3.15;;;2.38;;
25169;SDS011;13129;48.012;10.352;2022-11-20T09:41:46;2.47;;;2.28;;
25169;SDS011;13129;48.012;10.352;2022-11-20T09:44:34;3.13;;;2.15;;
25169;SDS011;13129;48.012;10.352;2022-11-20T09:54:06;3.97;;;2.70;;
25169;SDS011;13129;48.012;10.352;2022-11-20T09:59:13;4.07;;;3.78;;
25169;SDS011;13129;48.012;10.352;2022-11-20T10:01:48;3.00;;;2.63;;
25169;SDS011;13129;48.012;10.352;2022-11-20T10:09:53;2.33;;;2.20;;
25169;SDS011;13129;48.012;10.352;2022-11-20T10:12:31;2.47;;;2.28;;
25169;SDS011;13129;48.012;10.352;2022-11-20T10:15:33;2.80;;;2.47;;
25169;SDS011;13129;48.012;10.352;2022-11-20T10:18:11;3.70;;;3.40;;
25169;SDS011;13129;48.012;10.352;2022-11-20T10:21:02;3.03;;;2.72;;
25169;SDS011;13129;48.012;10.352;2022-11-20T10:29:34;2.17;;;1.98;;
25169;SDS011;13129;48.012;10.352;2022-11-20T10:32:03;2.10;;;1.90;;
25169;SDS011;13129;48.012;10.352;2022-11-20T10:34:57;2.60;;;2.30;;
25169;SDS011;13129;48.012;10.352;2022-11-20T10:37:27;2.70;;;2.50;;
25169;SDS011;13129;48.012;10.352;2022-11-20T10:47:56;2.30;;;2.20;;
25169;SDS011;13129;48.012;10.352;2022-11-20T10:50:36;2.33;;;2.13;;
25169;SDS011;13129;48.012;10.352;2022-11-20T10:55:53;2.25;;;1.80;;
25169;SDS011;13129;48.012;10.352;2022-11-20T11:30:42;3.22;;;2.92;;
25169;SDS011;13129;48.012;10.352;2022-11-20T11:33:10;7.28;;;4.72;;
25169;SDS011;13129;48.012;10.352;2022-11-20T11:35:47;9.68;;;6.95;;
25169;SDS011;13129;48.012;10.352;2022-11-20T11:38:34;12.55;;;8.10;;
25169;SDS011;13129;48.012;10.352;2022-11-20T11:41:00;8.80;;;6.45;;
25169;SDS011;13129;48.012;10.352;2022-11-20T11:43:32;10.10;;;6.75;;
25169;SDS011;13129;48.012;10.352;2022-11-20T11:46:28;8.07;;;4.57;;
25169;SDS011;13129;48.012;10.352;2022-11-20T11:48:59;3.70;;;3.30;;
25169;SDS011;13129;48.012;10.352;2022-11-20T11:54:17;5.03;;;4.53;;
25169;SDS011;13129;48.012;10.352;2022-11-20T11:56:48;2.65;;;2.45;;
25169;SDS011;13129;48.012;10.352;2022-11-20T11:59:20;3.10;;;2.90;;
25169;SDS011;13129;48.012;10.352;2022-11-20T12:01:55;2.50;;;2.30;;
25169;SDS011;13129;48.012;10.352;2022-11-20T12:10:23;3.22;;;2.95;;
25169;SDS011;13129;48.012;10.352;2022-11-20T12:16:23;3.55;;;2.88;;
25169;SDS011;13129;48.012;10.352;2022-11-20T12:18:50;11.68;;;5.32;;
25169;SDS011;13129;48.012;10.352;2022-11-20T12:39:52;10.82;;;6.63;;
25169;SDS011;13129;48.012;10.352;2022-11-20T12:42:29;5.80;;;4.38;;
25169;SDS011;13129;48.012;10.352;2022-11-20T12:56:50;4.65;;;4.25;;
25169;SDS011;13129;48.012;10.352;2022-11-20T13:05:04;2.63;;;2.42;;
25169;SDS011;13129;48.012;10.352;2022-11-20T13:07:52;4.45;;;2.97;;
25169;SDS011;13129;48.012;10.352;2022-11-20T13:10:27;3.78;;;3.00;;
25169;SDS011;13129;48.012;10.352;2022-11-20T13:16:15;4.45;;;2.90;;
25169;SDS011;13129;48.012;10.352;2022-11-20T13:18:51;4.20;;;3.00;;
25169;SDS011;13129;48.012;10.352;2022-11-20T13:21:18;3.10;;;2.80;;
25169;SDS011;13129;48.012;10.352;2022-11-20T13:23:47;4.28;;;3.40;;
25169;SDS011;13129;48.012;10.352;2022-11-20T13:26:17;3.75;;;2.95;;
25169;SDS011;13129;48.012;10.352;2022-11-20T13:28:46;3.17;;;2.75;;
25169;SDS011;13129;48.012;10.352;2022-11-20T13:31:28;5.28;;;3.78;;
25169;SDS011;13129;48.012;10.352;2022-11-20T13:33:56;5.07;;;3.58;;
25169;SDS011;13129;48.012;10.352;2022-11-20T13:36:28;3.30;;;2.67;;
25169;SDS011;13129;48.012;10.352;2022-11-20T13:38:59;3.00;;;2.78;;
25169;SDS011;13129;48.012;10.352;2022-11-20T13:41:32;3.72;;;3.33;;
25169;SDS011;13129;48.012;10.352;2022-11-20T13:44:12;3.78;;;2.97;;
25169;SDS011;13129;48.012;10.352;2022-11-20T13:46:51;4.85;;;3.30;;
25169;SDS011;13129;48.012;10.352;2022-11-20T13:51:56;5.75;;;4.90;;
25169;SDS011;13129;48.012;10.352;2022-11-20T14:00:32;2.83;;;2.63;;
25169;SDS011;13129;48.012;10.352;2022-11-20T14:05:55;2.85;;;2.60;;
25169;SDS011;13129;48.012;10.352;2022-11-20T14:11:02;2.65;;;2.35;;
25169;SDS011;13129;48.012;10.352;2022-11-20T14:13:38;2.60;;;2.40;;
25169;SDS011;13129;48.012;10.352;2022-11-20T14:16:04;3.83;;;2.30;;
25169;SDS011;13129;48.012;10.352;2022-11-20T14:18:30;2.40;;;2.20;;
25169;SDS011;13129;48.012;10.352;2022-11-20T14:20:55;2.47;;;2.30;;
25169;SDS011;13129;48.012;10.352;2022-11-20T14:23:25;2.03;;;1.83;;
25169;SDS011;13129;48.012;10.352;2022-11-20T14:25:53;2.88;;;2.20;;
25169;SDS011;13129;48.012;10.352;2022-11-20T14:28:21;3.38;;;3.08;;
25169;SDS011;13129;48.012;10.352;2022-11-20T14:30:51;2.38;;;2.28;;
25169;SDS011;13129;48.012;10.352;2022-11-20T14:33:17;2.50;;;2.30;;
25169;SDS011;13129;48.012;10.352;2022-11-20T14:35:48;3.45;;;2.70;;
25169;SDS011;13129;48.012;10.352;2022-11-20T14:38:34;2.60;;;2.40;;
25169;SDS011;13129;48.012;10.352;2022-11-20T14:41:07;2.30;;;2.20;;
25169;SDS011;13129;48.012;10.352;2022-11-20T14:43:44;3.25;;;2.05;;
25169;SDS011;13129;48.012;10.352;2022-11-20T14:46:22;3.72;;;3.30;;
25169;SDS011;13129;48.012;10.352;2022-11-20T14:48:53;4.82;;;3.55;;
25169;SDS011;13129;48.012;10.352;2022-11-20T14:51:37;31.42;;;16.88;;
25169;SDS011;13129;48.012;10.352;2022-11-20T14:54:08;9.20;;;7.88;;
25169;SDS011;13129;48.012;10.352;2022-11-20T14:56:41;3.47;;;3.25;;
25169;SDS011;13129;48.012;10.352;2022-11-20T14:59:22;2.90;;;2.70;;
25169;SDS011;13129;48.012;10.352;2022-11-20T15:04:49;2.13;;;2.03;;
25169;SDS011;13129;48.012;10.352;2022-11-20T15:07:26;3.60;;;2.75;;
25169;SDS011;13129;48.012;10.352;2022-11-20T15:10:04;2.60;;;2.40;;
25169;SDS011;13129;48.012;10.352;2022-11-20T15:12:33;2.97;;;2.63;;
25169;SDS011;13129;48.012;10.352;2022-11-20T15:17:38;3.25;;;2.85;;
25169;SDS011;13129;48.012;10.352;2022-11-20T15:20:08;3.63;;;2.50;;
25169;SDS011;13129;48.012;10.352;2022-11-20T15:22:40;2.67;;;2.47;;
25169;SDS011;13129;48.012;10.352;2022-11-20T15:25:15;2.30;;;2.10;;
25169;SDS011;13129;48.012;10.352;2022-11-20T15:28:01;2.42;;;2.22;;
25169;SDS011;13129;48.012;10.352;2022-11-20T15:30:26;3.00;;;2.25;;
25169;SDS011;13129;48.012;10.352;2022-11-20T15:32:52;3.53;;;2.80;;
25169;SDS011;13129;48.012;10.352;2022-11-20T15:35:18;5.15;;;2.88;;
25169;SDS011;13129;48.012;10.352;2022-11-20T15:37:44;7.18;;;4.60;;
25169;SDS011;13129;48.012;10.352;2022-11-20T15:40:09;13.43;;;7.03;;
25169;SDS011;13129;48.012;10.352;2022-11-20T15:42:35;16.65;;;8.35;;
25169;SDS011;13129;48.012;10.352;2022-11-20T15:45:01;26.73;;;12.75;;
25169;SDS011;13129;48.012;10.352;2022-11-20T15:47:31;31.95;;;15.27;;
25169;SDS011;13129;48.012;10.352;2022-11-20T15:50:00;15.15;;;9.02;;
25169;SDS011;13129;48.012;10.352;2022-11-20T15:52:26;8.48;;;6.80;;
25169;SDS011;13129;48.012;10.352;2022-11-20T15:54:51;3.85;;;3.30;;
25169;SDS011;13129;48.012;10.352;2022-11-20T15:57:36;3.30;;;3.08;;
25169;SDS011;13129;48.012;10.352;2022-11-20T16:00:02;13.32;;;9.95;;
25169;SDS011;13129;48.012;10.352;2022-11-20T16:02:28;5.05;;;4.53;;
25169;SDS011;13129;48.012;10.352;2022-11-20T16:04:53;7.60;;;6.90;;
25169;SDS011;13129;48.012;10.352;2022-11-20T16:07:19;9.00;;;8.38;;
25169;SDS011;13129;48.012;10.352;2022-11-20T16:09:44;5.65;;;5.25;;
25169;SDS011;13129;48.012;10.352;2022-11-20T16:12:10;5.15;;;4.65;;
25169;SDS011;13129;48.012;10.352;2022-11-20T16:14:56;6.82;;;5.25;;
25169;SDS011;13129;48.012;10.352;2022-11-20T16:17:40;4.97;;;4.57;;
25169;SDS011;13129;48.012;10.352;2022-11-20T16:20:10;4.45;;;4.05;;
25169;SDS011;13129;48.012;10.352;2022-11-20T16:22:36;5.15;;;4.70;;
25169;SDS011;13129;48.012;10.352;2022-11-20T16:25:02;6.40;;;5.88;;
25169;SDS011;13129;48.012;10.352;2022-11-20T16:27:29;6.90;;;6.20;;
25169;SDS011;13129;48.012;10.352;2022-11-20T16:29:54;9.32;;;6.97;;
25169;SDS011;13129;48.012;10.352;2022-11-20T16:32:20;6.47;;;5.88;;
25169;SDS011;13129;48.012;10.352;2022-11-20T16:34:46;9.80;;;8.05;;
25169;SDS011;13129;48.012;10.352;2022-11-20T16:37:11;12.70;;;8.68;;
25169;SDS011;13129;48.012;10.352;2022-11-20T16:39:37;10.65;;;7.45;;
25169;SDS011;13129;48.012;10.352;2022-11-20T16:42:03;9.23;;;7.57;;
25169;SDS011;13129;48.012;10.352;2022-11-20T16:44:30;12.02;;;9.85;;
25169;SDS011;13129;48.012;10.352;2022-11-20T16:46:55;13.60;;;8.93;;
25169;SDS011;13129;48.012;10.352;2022-11-20T16:49:21;9.05;;;8.07;;
25169;SDS011;13129;48.012;10.352;2022-11-20T16:51:47;13.02;;;8.05;;
25169;SDS011;13129;48.012;10.352;2022-11-20T16:54:13;12.15;;;8.98;;
25169;SDS011;13129;48.012;10.352;2022-11-20T16:56:38;15.07;;;10.70;;
25169;SDS011;13129;48.012;10.352;2022-11-20T16:59:04;9.40;;;7.30;;
25169;SDS011;13129;48.012;10.352;2022-11-20T17:01:31;12.00;;;6.78;;
25169;SDS011;13129;48.012;10.352;2022-11-20T17:04:02;16.25;;;10.02;;
25169;SDS011;13129;48.012;10.352;2022-11-20T17:06:29;9.35;;;7.60;;
25169;SDS011;13129;48.012;10.352;2022-11-20T17:08:59;8.77;;;7.90;;
25169;SDS011;13129;48.012;10.352;2022-11-20T17:11:25;6.57;;;5.70;;
25169;SDS011;13129;48.012;10.352;2022-11-20T17:13:53;6.00;;;5.40;;
25169;SDS011;13129;48.012;10.352;2022-11-20T17:16:21;6.13;;;5.53;;
25169;SDS011;13129;48.012;10.352;2022-11-20T17:18:47;7.55;;;5.75;;
25169;SDS011;13129;48.012;10.352;2022-11-20T17:21:17;8.23;;;7.38;;
25169;SDS011;13129;48.012;10.352;2022-11-20T17:23:43;6.90;;;6.18;;
25169;SDS011;13129;48.012;10.352;2022-11-20T17:26:11;6.57;;;5.97;;
25169;SDS011;13129;48.012;10.352;2022-11-20T17:28:40;7.20;;;6.18;;
25169;SDS011;13129;48.012;10.352;2022-11-20T17:31:07;6.53;;;5.75;;
25169;SDS011;13129;48.012;10.352;2022-11-20T17:33:38;6.88;;;5.78;;
25169;SDS011;13129;48.012;10.352;2022-11-20T17:36:06;6.80;;;6.13;;
25169;SDS011;13129;48.012;10.352;2022-11-20T17:38:32;6.53;;;5.88;;
25169;SDS011;13129;48.012;10.352;2022-11-20T17:41:02;6.55;;;5.03;;
25169;SDS011;13129;48.012;10.352;2022-11-20T17:45:55;6.35;;;5.43;;
25169;SDS011;13129;48.012;10.352;2022-11-20T17:48:21;6.00;;;5.20;;
25169;SDS011;13129;48.012;10.352;2022-11-20T17:50:47;8.48;;;6.22;;
25169;SDS011;13129;48.012;10.352;2022-11-20T17:53:12;9.15;;;6.00;;
25169;SDS011;13129;48.012;10.352;2022-11-20T17:55:38;7.78;;;5.88;;
25169;SDS011;13129;48.012;10.352;2022-11-20T17:58:22;8.50;;;6.78;;
25169;SDS011;13129;48.012;10.352;2022-11-20T18:00:51;8.52;;;6.20;;
25169;SDS011;13129;48.012;10.352;2022-11-20T18:03:17;6.47;;;5.20;;
25169;SDS011;13129;48.012;10.352;2022-11-20T18:05:43;4.95;;;4.55;;
25169;SDS011;13129;48.012;10.352;2022-11-20T18:08:08;6.05;;;5.20;;
25169;SDS011;13129;48.012;10.352;2022-11-20T18:10:34;10.30;;;8.00;;
25169;SDS011;13129;48.012;10.352;2022-11-20T18:13:00;15.02;;;12.18;;
25169;SDS011;13129;48.012;10.352;2022-11-20T18:15:25;13.07;;;10.65;;
25169;SDS011;13129;48.012;10.352;2022-11-20T18:17:51;8.57;;;7.53;;
25169;SDS011;13129;48.012;10.352;2022-11-20T18:20:16;7.85;;;7.05;;
25169;SDS011;13129;48.012;10.352;2022-11-20T18:22:43;7.35;;;6.65;;
25169;SDS011;13129;48.012;10.352;2022-11-20T18:25:08;7.00;;;6.30;;
25169;SDS011;13129;48.012;10.352;2022-11-20T18:27:34;7.13;;;6.15;;
25169;SDS011;13129;48.012;10.352;2022-11-20T18:30:00;6.88;;;6.28;;
25169;SDS011;13129;48.012;10.352;2022-11-20T18:32:25;7.55;;;6.13;;
25169;SDS011;13129;48.012;10.352;2022-11-20T18:34:51;7.55;;;6.85;;
25169;SDS011;13129;48.012;10.352;2022-11-20T18:37:17;8.80;;;6.25;;
25169;SDS011;13129;48.012;10.352;2022-11-20T18:39:43;7.90;;;6.43;;
25169;SDS011;13129;48.012;10.352;2022-11-20T18:42:12;8.43;;;7.53;;
25169;SDS011;13129;48.012;10.352;2022-11-20T18:44:58;9.15;;;6.90;;
25169;SDS011;13129;48.012;10.352;2022-11-20T18:47:28;11.20;;;7.18;;
25169;SDS011;13129;48.012;10.352;2022-11-20T18:49:56;12.55;;;8.48;;
25169;SDS011;13129;48.012;10.352;2022-11-20T18:52:31;10.20;;;7.00;;
25169;SDS011;13129;48.012;10.352;2022-11-20T18:54:58;8.40;;;6.97;;
25169;SDS011;13129;48.012;10.352;2022-11-20T18:57:26;11.15;;;7.93;;
25169;SDS011;13129;48.012;10.352;2022-11-20T18:59:53;9.18;;;8.15;;
25169;SDS011;13129;48.012;10.352;2022-11-20T19:02:20;11.10;;;8.88;;
25169;SDS011;13129;48.012;10.352;2022-11-20T19:04:47;9.95;;;7.97;;
25169;SDS011;13129;48.012;10.352;2022-11-20T19:07:13;8.90;;;8.07;;
25169;SDS011;13129;48.012;10.352;2022-11-20T19:09:40;10.30;;;8.88;;
25169;SDS011;13129;48.012;10.352;2022-11-20T19:12:07;9.93;;;8.93;;
25169;SDS011;13129;48.012;10.352;2022-11-20T19:14:34;14.05;;;10.82;;
25169;SDS011;13129;48.012;10.352;2022-11-20T19:17:00;16.25;;;10.00;;
25169;SDS011;13129;48.012;10.352;2022-11-20T19:19:26;12.45;;;9.25;;
25169;SDS011;13129;48.012;10.352;2022-11-20T19:21:53;11.93;;;9.60;;
25169;SDS011;13129;48.012;10.352;2022-11-20T19:24:19;10.88;;;9.23;;
25169;SDS011;13129;48.012;10.352;2022-11-20T19:26:46;11.15;;;8.88;;
25169;SDS011;13129;48.012;10.352;2022-11-20T19:29:13;9.68;;;8.65;;
25169;SDS011;13129;48.012;10.352;2022-11-20T19:31:40;7.25;;;6.55;;
25169;SDS011;13129;48.012;10.352;2022-11-20T19:34:07;6.90;;;6.20;;
25169;SDS011;13129;48.012;10.352;2022-11-20T19:36:34;6.03;;;5.30;;
25169;SDS011;13129;48.012;10.352;2022-11-20T19:39:03;6.32;;;5.57;;
25169;SDS011;13129;48.012;10.352;2022-11-20T19:41:31;6.60;;;6.03;;
25169;SDS011;13129;48.012;10.352;2022-11-20T19:43:59;7.25;;;5.35;;
25169;SDS011;13129;48.012;10.352;2022-11-20T19:46:27;6.10;;;5.50;;
25169;SDS011;13129;48.012;10.352;2022-11-20T19:48:54;6.88;;;5.93;;
25169;SDS011;13129;48.012;10.352;2022-11-20T19:51:24;6.45;;;5.05;;
25169;SDS011;13129;48.012;10.352;2022-11-20T19:53:51;4.57;;;4.05;;
25169;SDS011;13129;48.012;10.352;2022-11-20T19:56:18;4.40;;;4.00;;
25169;SDS011;13129;48.012;10.352;2022-11-20T19:58:44;4.15;;;3.78;;
25169;SDS011;13129;48.012;10.352;2022-11-20T20:01:17;4.18;;;3.78;;
25169;SDS011;13129;48.012;10.352;2022-11-20T20:03:44;4.13;;;3.80;;
25169;SDS011;13129;48.012;10.352;2022-11-20T20:06:12;3.63;;;3.33;;
25169;SDS011;13129;48.012;10.352;2022-11-20T20:08:39;3.35;;;3.05;;
25169;SDS011;13129;48.012;10.352;2022-11-20T20:11:09;3.60;;;3.30;;
25169;SDS011;13129;48.012;10.352;2022-11-20T20:13:40;4.28;;;3.90;;
25169;SDS011;13129;48.012;10.352;2022-11-20T20:16:10;4.20;;;3.80;;
25169;SDS011;13129;48.012;10.352;2022-11-20T20:18:38;3.08;;;2.78;;
25169;SDS011;13129;48.012;10.352;2022-11-20T20:21:06;3.55;;;3.25;;
25169;SDS011;13129;48.012;10.352;2022-11-20T20:23:37;4.13;;;3.50;;
25169;SDS011;13129;48.012;10.352;2022-11-20T20:26:04;4.47;;;3.63;;
25169;SDS011;13129;48.012;10.352;2022-11-20T20:28:31;3.97;;;3.30;;
25169;SDS011;13129;48.012;10.352;2022-11-20T20:31:04;3.13;;;2.92;;
25169;SDS011;13129;48.012;10.352;2022-11-20T20:33:40;4.38;;;3.80;;
25169;SDS011;13129;48.012;10.352;2022-11-20T20:36:07;4.15;;;3.72;;
25169;SDS011;13129;48.012;10.352;2022-11-20T20:38:33;4.45;;;3.40;;
25169;SDS011;13129;48.012;10.352;2022-11-20T20:40:59;3.22;;;2.92;;
25169;SDS011;13129;48.012;10.352;2022-11-20T20:43:26;2.95;;;2.70;;
25169;SDS011;13129;48.012;10.352;2022-11-20T20:45:52;2.85;;;2.65;;
25169;SDS011;13129;48.012;10.352;2022-11-20T20:48:19;3.40;;;2.92;;
25169;SDS011;13129;48.012;10.352;2022-11-20T20:50:56;3.50;;;3.20;;
25169;SDS011;13129;48.012;10.352;2022-11-20T20:53:23;3.42;;;3.13;;
25169;SDS011;13129;48.012;10.352;2022-11-20T20:55:56;4.05;;;3.65;;
25169;SDS011;13129;48.012;10.352;2022-11-20T20:58:23;3.95;;;3.53;;
25169;SDS011;13129;48.012;10.352;2022-11-20T21:00:49;3.88;;;2.83;;
25169;SDS011;13129;48.012;10.352;2022-11-20T21:03:15;3.50;;;3.20;;
25169;SDS011;13129;48.012;10.352;2022-11-20T21:05:41;4.03;;;2.88;;
25169;SDS011;13129;48.012;10.352;2022-11-20T21:08:07;3.50;;;3.20;;
25169;SDS011;13129;48.012;10.352;2022-11-20T21:10:53;2.30;;;2.10;;
25169;SDS011;13129;48.012;10.352;2022-11-20T21:13:20;2.60;;;2.40;;
25169;SDS011;13129;48.012;10.352;2022-11-20T21:15:48;2.25;;;2.15;;
25169;SDS011;13129;48.012;10.352;2022-11-20T21:18:15;3.00;;;2.72;;
25169;SDS011;13129;48.012;10.352;2022-11-20T21:20:42;2.47;;;2.28;;
25169;SDS011;13129;48.012;10.352;2022-11-20T21:23:27;2.28;;;2.15;;
25169;SDS011;13129;48.012;10.352;2022-11-20T21:25:53;2.50;;;2.30;;
25169;SDS011;13129;48.012;10.352;2022-11-20T21:28:20;2.95;;;2.50;;
25169;SDS011;13129;48.012;10.352;2022-11-20T21:30:47;3.05;;;2.67;;
25169;SDS011;13129;48.012;10.352;2022-11-20T21:33:13;2.70;;;2.50;;
25169;SDS011;13129;48.012;10.352;2022-11-20T21:35:38;3.10;;;2.90;;